Weed, California
Current Conditions -  °F | °C
As of 10:04 PM on Wednesday 22 Oct 2014 (Local Time) from KMHS Reporting Station
Light Rain Light Rain  
Wind Chill: 48°   Ceiling: 5000
Heat Index: 48°   Visibility: 9mi
Dew Point: 43°   Wind: 0mph
Humidity: 83%   Direction: NA
Pressure: 30.06"   Gusts: NA
Location:  41.42°N, 122.39°W
Report Text: KMHS 230504Z AUTO 00000KT 9SM -RA SCT028 BKN050 OVC060 09/06 A3006 RMK AO2 P0001 T00890061
Loading
Personal Weather Stations






























Interactive Weather Map
Tropical Storm Tracking
New forecast layout! Learn more

10-Day Weather Forecast

Advertisements
Track Severe Weather on mobile